Time;durP1;ratioP1;P1;durP2;ratioP2;P2;SDS_P1;SDS_P2;PMS_P1;PMS_P2;Temp;Humidity;BMP_temperature;BMP_pressure;BME280_temperature;BME280_humidity;BME280_pressure;Samples;Min_cycle;Max_cycle;Signal;HPM_P1;HPM_P2
2021/08/25 00:00:29;;;;;;;5.40;2.90;;;10.80;99.90;;;12.19;97.30;101543.09;6135282;23;20029;-88
2021/08/25 00:02:56;;;;;;;5.13;2.85;;;10.70;99.90;;;12.12;97.32;101541.69;6138059;23;20038;-86
2021/08/25 00:05:22;;;;;;;4.32;3.05;;;10.70;99.90;;;12.08;97.52;101535.16;6146823;23;20006;-88
2021/08/25 00:07:48;;;;;;;7.40;3.38;;;10.60;99.90;;;12.04;97.93;101539.00;6136047;23;20037;-86
2021/08/25 00:12:42;;;;;;;4.85;3.05;;;10.60;99.90;;;11.99;97.76;101544.81;6164785;23;20021;-86
2021/08/25 00:15:09;;;;;;;5.50;3.25;;;10.50;99.90;;;11.95;97.86;101536.28;6146593;23;20032;-87
2021/08/25 00:17:36;;;;;;;6.63;3.28;;;10.50;99.90;;;11.91;98.12;101540.94;6144443;23;20002;-88
2021/08/25 00:20:04;;;;;;;4.68;2.78;;;10.50;99.90;;;11.87;98.21;101536.38;6134995;23;20009;-86
2021/08/25 00:22:30;;;;;;;5.40;2.75;;;10.40;99.90;;;11.84;98.30;101539.88;6135702;23;20002;-86
2021/08/25 00:24:57;;;;;;;7.13;3.03;;;10.40;99.90;;;11.81;98.55;101527.41;6160035;23;20064;-87
2021/08/25 00:27:23;;;;;;;5.43;3.17;;;10.40;99.90;;;11.75;98.50;101531.56;6136932;23;20013;-87
2021/08/25 00:29:49;;;;;;;6.72;3.35;;;10.30;99.90;;;11.71;98.28;101530.63;6137880;23;20347;-87
2021/08/25 00:32:15;;;;;;;4.45;2.53;;;10.30;99.90;;;11.69;98.49;101532.91;6137265;23;20009;-87
2021/08/25 00:34:40;;;;;;;6.07;3.10;;;10.30;99.90;;;11.69;98.41;101520.91;6164825;23;20033;-85
2021/08/25 00:37:06;;;;;;;6.25;2.88;;;10.20;99.90;;;11.71;98.82;101524.22;6139740;23;20010;-88
2021/08/25 00:39:32;;;;;;;6.50;3.40;;;10.30;99.90;;;11.73;99.27;101522.69;6139231;23;20016;-84
2021/08/25 00:41:58;;;;;;;5.18;2.80;;;10.30;99.90;;;11.72;99.18;101523.84;6142818;23;20013;-86
2021/08/25 00:44:24;;;;;;;3.97;2.47;;;10.30;99.90;;;11.71;99.23;101527.84;6144876;23;20005;-86
2021/08/25 00:46:50;;;;;;;5.93;3.50;;;10.20;99.90;;;11.69;99.37;101523.72;6138900;23;20392;-87
2021/08/25 00:49:25;;;;;;;6.65;3.10;;;10.20;99.90;;;11.68;99.79;101520.09;6138336;23;20025;-88
2021/08/25 00:51:50;;;;;;;6.65;2.97;;;10.20;99.90;;;11.65;99.45;101515.97;6137879;23;20032;-88
2021/08/25 00:54:19;;;;;;;4.57;2.30;;;10.20;99.90;;;11.57;99.29;101516.06;6139331;23;20013;-87
2021/08/25 00:56:50;;;;;;;5.10;2.53;;;10.10;99.90;;;11.50;99.76;101507.41;6144202;23;20013;-85
2021/08/25 00:59:19;;;;;;;6.88;3.60;;;10.10;99.90;;;11.46;99.84;101504.47;6145600;23;20016;-88
2021/08/25 01:02:01;;;;;;;5.30;2.88;;;10.00;99.90;;;11.48;99.69;101510.56;6132783;23;20063;-86
2021/08/25 01:04:58;;;;;;;5.80;3.42;;;10.10;99.90;;;11.49;100.00;101503.00;6132473;23;20033;-86
2021/08/25 01:07:36;;;;;;;7.50;2.90;;;10.00;99.90;;;11.46;100.00;101496.09;6132470;23;20075;-86
2021/08/25 01:10:33;;;;;;;4.90;3.08;;;10.00;99.90;;;11.44;100.00;101492.84;6132567;23;20064;-88
2021/08/25 01:13:04;;;;;;;4.43;2.72;;;10.00;99.90;;;11.42;100.00;101494.34;6132428;23;20017;-87
2021/08/25 01:15:40;;;;;;;6.55;2.47;;;10.00;99.90;;;11.39;100.00;101495.03;6132464;23;20009;-86
2021/08/25 01:18:12;;;;;;;;;;;10.00;99.90;;;11.38;100.00;101502.59;6133509;23;20012;-86
2021/08/25 01:20:45;;;;;;;6.03;2.70;;;10.00;99.90;;;11.38;100.00;101498.97;6132522;23;20302;-86
2021/08/25 01:23:21;;;;;;;6.03;3.20;;;10.00;99.90;;;11.39;100.00;101495.03;6157021;23;20089;-85
2021/08/25 01:25:53;;;;;;;;;;;10.00;99.90;;;11.43;100.00;101496.00;6132573;23;20005;-85
2021/08/25 01:28:26;;;;;;;5.25;2.75;;;10.00;99.90;;;11.40;100.00;101491.88;6156923;23;19928;-85
2021/08/25 01:30:52;;;;;;;4.90;2.90;;;10.00;99.90;;;11.42;100.00;101494.34;6157245;23;20005;-85
2021/08/25 01:33:26;;;;;;;7.47;3.20;;;10.00;99.90;;;11.38;100.00;101491.41;6131384;23;20013;-85
2021/08/25 01:35:52;;;;;;;7.25;3.75;;;10.00;99.90;;;11.36;100.00;101492.91;6132493;23;20053;-86
2021/08/25 01:38:46;;;;;;;5.95;3.45;;;10.00;99.90;;;11.33;100.00;101486.03;6132414;23;20017;-86
2021/08/25 01:41:12;;;;;;;5.25;3.45;;;9.90;99.90;;;11.29;100.00;101487.06;6131617;23;20068;-86
2021/08/25 01:43:38;;;;;;;7.50;3.03;;;9.90;99.90;;;11.27;100.00;101486.59;6131386;23;20012;-86
2021/08/25 01:46:04;;;;;;;6.25;3.67;;;9.80;99.90;;;11.25;100.00;101486.91;6131504;23;20001;-86
2021/08/25 01:48:32;;;;;;;5.15;3.67;;;9.80;99.90;;;11.26;100.00;101484.94;6132434;23;20020;-84
2021/08/25 01:50:59;;;;;;;7.38;3.55;;;9.90;99.90;;;11.25;100.00;101486.91;6132201;23;20006;-86
2021/08/25 01:53:25;;;;;;;6.07;3.80;;;9.80;99.90;;;11.27;100.00;101478.19;6156713;23;20008;-85
2021/08/25 01:55:50;;;;;;;6.43;3.70;;;9.80;99.90;;;11.23;100.00;101474.44;6132522;23;20005;-86
2021/08/25 01:58:16;;;;;;;5.90;3.03;;;9.80;99.90;;;11.23;100.00;101472.47;6132588;23;20062;-84
2021/08/25 02:00:42;;;;;;;5.40;2.95;;;9.80;99.90;;;11.20;100.00;101469.53;6157484;23;20010;-85
2021/08/25 02:03:09;;;;;;;11.50;3.50;;;9.80;99.90;;;11.14;100.00;101465.31;6132940;23;20010;-88
2021/08/25 02:05:34;;;;;;;4.25;2.60;;;9.70;99.90;;;11.06;100.00;101470.63;6133009;23;20005;-85
2021/08/25 02:08:00;;;;;;;4.72;3.22;;;9.70;99.90;;;11.03;100.00;101464.91;6133920;23;20432;-87
2021/08/25 02:10:26;;;;;;;6.43;3.53;;;9.60;99.90;;;10.98;100.00;101462.34;6160046;23;20009;-87
2021/08/25 02:12:52;;;;;;;4.55;3.00;;;9.60;99.90;;;10.96;100.00;101467.44;6158222;23;20013;-85
2021/08/25 02:15:18;;;;;;;5.15;3.17;;;9.60;99.90;;;10.95;100.00;101466.59;6134346;23;20029;-87
2021/08/25 02:17:44;;;;;;;8.38;5.72;;;9.50;99.90;;;10.97;100.00;101460.69;6134424;23;20033;-87
2021/08/25 02:20:11;;;;;;;9.82;6.70;;;9.60;99.90;;;11.00;100.00;101455.25;6135012;23;20014;-86
2021/08/25 02:22:38;;;;;;;10.18;5.85;;;9.60;99.90;;;11.00;100.00;101455.25;6135107;23;20001;-86
2021/08/25 02:25:04;;;;;;;6.65;5.07;;;9.60;99.90;;;10.99;100.00;101458.34;6135940;23;20012;-84
2021/08/25 02:27:30;;;;;;;5.97;4.10;;;9.60;99.90;;;10.96;100.00;101459.03;6137211;23;20009;-87
2021/08/25 02:29:55;;;;;;;8.38;4.72;;;9.60;99.90;;;10.95;100.00;101457.41;6143064;23;20032;-88
2021/08/25 02:32:26;;;;;;;7.50;4.07;;;9.50;99.90;;;10.94;100.00;101453.00;6138503;23;20447;-85
2021/08/25 02:34:53;;;;;;;7.63;4.15;;;9.50;99.90;;;10.93;100.00;101452.16;6131989;23;20073;-86
2021/08/25 02:37:20;;;;;;;8.75;4.20;;;9.50;99.90;;;10.96;100.00;101443.09;6132584;23;20092;-89
2021/08/25 02:39:46;;;;;;;7.32;4.50;;;9.50;99.90;;;10.96;100.00;101443.09;6132139;23;20006;-85
2021/08/25 02:42:12;;;;;;;5.50;3.67;;;9.50;99.90;;;10.94;100.00;101439.84;6132361;23;20009;-87
2021/08/25 02:44:38;;;;;;;8.18;4.53;;;9.50;99.90;;;10.88;100.00;101443.19;6134410;23;20017;-86
2021/08/25 02:47:05;;;;;;;8.00;3.70;;;9.40;99.90;;;10.82;100.00;101436.94;6136856;23;20044;-85
2021/08/25 02:49:31;;;;;;;6.10;3.72;;;9.40;99.90;;;10.81;100.00;101442.91;6136186;23;20005;-87
2021/08/25 02:51:58;;;;;;;6.97;4.10;;;9.40;99.90;;;10.78;100.00;101430.44;6160939;23;20420;-88
2021/08/25 02:54:24;;;;;;;6.38;4.10;;;9.40;99.90;;;10.76;100.00;101431.91;6136667;23;20013;-86
2021/08/25 02:56:49;;;;;;;7.15;3.60;;;9.40;99.90;;;10.70;100.00;101428.50;6137080;23;20059;-87
2021/08/25 02:59:15;;;;;;;8.40;4.00;;;9.30;99.90;;;10.68;100.00;101422.44;6136888;23;20092;-88
2021/08/25 03:01:41;;;;;;;8.13;3.97;;;9.30;99.90;;;10.64;100.00;101424.28;6162035;23;20006;-88
2021/08/25 03:04:07;;;;;;;6.35;4.75;;;9.20;99.90;;;10.67;100.00;101425.56;6162718;23;20446;-86
2021/08/25 03:06:33;;;;;;;8.73;4.35;;;9.20;99.90;;;10.66;100.00;101418.38;6139590;23;20001;-89
2021/08/25 03:08:59;;;;;;;9.07;4.30;;;9.20;99.90;;;10.65;100.00;101428.72;6165180;23;20088;-87
2021/08/25 03:11:25;;;;;;;9.80;5.10;;;9.20;99.90;;;10.66;100.00;101416.38;6165796;23;20325;-88
2021/08/25 03:13:51;;;;;;;6.95;4.93;;;9.30;99.90;;;10.66;100.00;101421.94;6144690;23;20444;-87
2021/08/25 03:16:16;;;;;;;6.78;4.30;;;9.30;99.90;;;10.67;100.00;101423.59;6138624;23;20348;-85
2021/08/25 03:18:42;;;;;;;7.53;3.67;;;9.20;99.90;;;10.69;100.00;101409.31;6135130;23;20359;-87
2021/08/25 03:21:09;;;;;;;7.68;3.90;;;9.20;99.90;;;10.72;100.00;101411.41;6135745;23;20010;-87
2021/08/25 03:23:35;;;;;;;4.70;3.10;;;9.30;99.90;;;10.71;100.00;101409.75;6161001;23;20080;-86
2021/08/25 03:26:00;;;;;;;7.15;4.03;;;9.20;99.90;;;10.68;100.00;101404.88;6161876;23;20036;-86
2021/08/25 03:28:26;;;;;;;6.05;3.78;;;9.20;99.90;;;10.68;100.00;101411.28;6135438;23;20010;-88
2021/08/25 03:30:56;;;;;;;6.72;4.20;;;9.20;99.90;;;10.70;100.00;101406.16;6135501;23;20006;-86
2021/08/25 03:33:23;;;;;;;8.60;4.07;;;9.30;99.90;;;10.73;100.00;101405.47;6135288;23;20045;-87
2021/08/25 03:35:50;;;;;;;4.90;3.88;;;9.20;99.90;;;10.71;100.00;101410.59;6162174;23;20027;-87
2021/08/25 03:38:16;;;;;;;5.30;3.35;;;9.30;99.90;;;10.66;100.00;101407.97;6136358;23;20019;-88
2021/08/25 03:40:42;;;;;;;5.18;3.28;;;9.20;99.90;;;10.59;100.00;101404.94;6160804;23;20005;-86
2021/08/25 03:43:08;;;;;;;5.65;3.78;;;9.20;99.90;;;10.54;100.00;101403.16;6162252;23;20010;-87
2021/08/25 03:45:34;;;;;;;5.72;3.63;;;9.10;99.90;;;10.52;100.00;101402.69;6136517;23;20020;-86
2021/08/25 03:48:00;;;;;;;8.10;3.65;;;9.10;99.90;;;10.50;100.00;101402.19;6136934;23;20090;-86
2021/08/25 03:50:26;;;;;;;5.65;3.72;;;9.10;99.90;;;10.49;100.00;101399.75;6162513;23;20009;-87
2021/08/25 03:52:52;;;;;;;8.05;4.55;;;9.10;99.90;;;10.48;100.00;101395.31;6135966;23;20011;-87
2021/08/25 03:55:18;;;;;;;6.53;3.33;;;9.00;99.90;;;10.48;100.00;101393.34;6136103;23;20032;-88
2021/08/25 03:57:44;;;;;;;5.47;3.15;;;9.00;99.90;;;10.47;100.00;101393.66;6135151;23;20013;-86
2021/08/25 04:00:11;;;;;;;7.90;3.72;;;9.00;99.90;;;10.51;100.00;101386.25;6134577;23;20025;-86
2021/08/25 04:02:36;;;;;;;6.28;4.15;;;9.10;99.90;;;10.52;100.00;101388.72;6134715;23;20435;-86
2021/08/25 04:05:02;;;;;;;7.10;3.58;;;9.10;99.90;;;10.52;100.00;101379.50;6135560;23;20010;-86
2021/08/25 04:07:30;;;;;;;7.55;3.92;;;9.10;99.90;;;10.48;100.00;101384.97;6135226;23;20029;-86
2021/08/25 04:09:56;;;;;;;6.57;4.45;;;9.10;99.90;;;10.48;100.00;101376.59;6135903;23;20013;-86
2021/08/25 04:12:23;;;;;;;5.82;3.75;;;9.00;99.90;;;10.47;100.00;101383.31;6136075;23;20451;-86
2021/08/25 04:14:49;;;;;;;6.70;3.42;;;9.00;99.90;;;10.43;100.00;101385.19;6135450;23;20014;-87
2021/08/25 04:17:14;;;;;;;6.13;3.30;;;9.00;99.90;;;10.42;100.00;101388.28;6164145;23;20010;-87
2021/08/25 04:19:40;;;;;;;8.65;4.20;;;9.00;99.90;;;10.40;100.00;101387.81;6137247;23;20009;-88
2021/08/25 04:22:06;;;;;;;7.60;3.75;;;9.00;99.90;;;10.40;100.00;101390.63;6163341;23;20428;-87
2021/08/25 04:24:32;;;;;;;6.57;4.07;;;9.00;99.90;;;10.40;100.00;101382.25;6145649;23;20005;-88
2021/08/25 04:26:58;;;;;;;5.88;3.50;;;9.00;99.90;;;10.37;100.00;101380.13;6169429;23;20126;-87
2021/08/25 04:29:24;;;;;;;5.80;3.60;;;8.90;99.90;;;10.32;100.00;101378.34;6134542;23;20013;-86
2021/08/25 04:31:50;;;;;;;6.88;4.10;;;8.90;99.90;;;10.34;100.00;101386.41;6134575;23;20116;-86
2021/08/25 04:34:16;;;;;;;6.15;3.70;;;8.90;99.90;;;10.33;100.00;101390.34;6134805;23;20339;-86
2021/08/25 04:36:42;;;;;;;6.45;3.90;;;8.90;99.90;;;10.34;100.00;101392.78;6135426;23;20009;-86
2021/08/25 04:39:08;;;;;;;6.38;4.10;;;8.90;99.90;;;10.38;100.00;101390.13;6160105;23;20013;-88
2021/08/25 04:41:34;;;;;;;7.88;4.30;;;8.90;99.90;;;10.43;100.00;101385.19;6138626;23;20475;-87
2021/08/25 04:44:00;;;;;;;7.47;3.50;;;9.00;99.90;;;10.51;100.00;101389.03;6146309;23;20005;-88
2021/08/25 04:46:26;;;;;;;6.00;4.10;;;9.00;99.90;;;10.56;100.00;101388.84;6138831;23;20002;-88
2021/08/25 04:48:52;;;;;;;8.73;4.07;;;9.10;99.90;;;10.57;100.00;101382.91;6132733;23;20439;-85
2021/08/25 04:51:21;;;;;;;7.53;4.28;;;9.10;99.90;;;10.58;100.00;101389.31;6132941;23;20024;-87
2021/08/25 04:53:47;;;;;;;9.35;4.38;;;9.10;99.90;;;10.62;100.00;101379.13;6132240;23;20040;-87
2021/08/25 04:56:13;;;;;;;9.05;4.18;;;9.10;99.90;;;10.66;100.00;101388.44;6159442;23;20195;-87
2021/08/25 04:58:38;;;;;;;9.88;4.32;;;9.20;99.90;;;10.71;100.00;101379.03;6158398;23;20016;-86
2021/08/25 05:01:06;;;;;;;7.38;4.20;;;9.20;99.90;;;10.76;100.00;101378.81;6136280;23;20010;-87
2021/08/25 05:03:33;;;;;;;7.00;4.38;;;9.30;99.90;;;10.80;100.00;101385.34;6146837;23;20006;-85
2021/08/25 05:06:07;;;;;;;7.15;3.58;;;9.30;99.90;;;10.83;100.00;101382.69;6149323;23;20474;-86
2021/08/25 05:08:33;;;;;;;8.57;4.82;;;9.30;99.90;;;10.87;100.00;101371.66;6173319;23;20440;-86
2021/08/25 05:10:59;;;;;;;6.95;4.28;;;9.40;99.90;;;10.91;100.00;101375.41;6169311;23;20020;-85
2021/08/25 05:13:26;;;;;;;4.97;3.80;;;9.40;99.90;;;10.96;100.00;101372.38;6132764;23;20010;-87
2021/08/25 05:15:53;;;;;;;5.78;3.60;;;9.40;99.90;;;11.01;100.00;101367.41;6132874;23;20009;-86
2021/08/25 05:18:19;;;;;;;7.40;3.80;;;9.50;99.90;;;11.07;100.00;101374.44;6159280;23;20502;-86
2021/08/25 05:20:44;;;;;;;7.72;4.45;;;9.50;99.90;;;11.08;100.00;101367.66;6133285;23;20017;-87
2021/08/25 05:23:11;;;;;;;6.70;4.40;;;9.50;99.90;;;11.11;100.00;101364.19;6159151;23;20404;-86
2021/08/25 05:25:37;;;;;;;8.73;4.78;;;9.50;99.90;;;11.15;100.00;101364.31;6133674;23;20008;-86
2021/08/25 05:28:04;;;;;;;7.57;4.90;;;9.60;99.90;;;11.22;100.00;101370.16;6134148;23;20005;-88
2021/08/25 05:30:30;;;;;;;6.70;4.05;;;9.70;99.90;;;11.30;100.00;101374.03;6157169;23;20454;-86
2021/08/25 05:32:56;;;;;;;7.32;4.68;;;9.70;99.90;;;11.38;100.00;101371.13;6134209;23;20013;-86
2021/08/25 05:35:23;;;;;;;9.07;4.80;;;9.80;99.90;;;11.47;100.00;101374.66;6133292;23;20155;-86
2021/08/25 05:37:51;;;;;;;7.40;4.50;;;9.90;99.90;;;11.60;100.00;101372.69;6133786;23;20385;-88
2021/08/25 05:40:19;;;;;;;9.73;5.07;;;10.00;99.90;;;11.72;100.00;101375.53;6134519;23;20010;-83
2021/08/25 05:42:46;;;;;;;8.07;4.53;;;10.10;99.90;;;11.85;100.00;101379.97;6135930;23;20416;-88
2021/08/25 05:45:13;;;;;;;7.68;4.70;;;10.20;99.90;;;11.95;99.86;101373.91;6138428;23;20346;-90
2021/08/25 05:47:39;;;;;;;9.77;5.43;;;10.30;99.90;;;12.09;99.83;101371.59;6138810;23;20010;-88
2021/08/25 05:50:08;;;;;;;8.18;4.80;;;10.40;99.90;;;12.29;99.20;101380.19;6136920;23;20014;-90
2021/08/25 05:52:34;;;;;;;7.30;4.95;;;10.60;99.90;;;12.48;99.18;101380.41;6138745;23;20009;-90
2021/08/25 05:55:00;;;;;;;6.28;3.88;;;10.80;99.90;;;12.69;99.08;101381.03;6136222;23;20032;-89
2021/08/25 05:57:26;;;;;;;10.35;4.70;;;10.90;99.90;;;12.93;98.33;101378.16;6133610;23;20064;-88
2021/08/25 05:59:52;;;;;;;8.80;4.28;;;11.10;99.90;;;13.14;97.29;101376.00;6134947;23;20005;-89
2021/08/25 06:02:18;;;;;;;6.78;4.28;;;11.20;99.90;;;13.32;96.53;101378.47;6164696;23;20013;-87
2021/08/25 06:04:45;;;;;;;5.13;3.53;;;11.40;99.90;;;13.57;95.51;101377.97;6140668;23;20010;-84
2021/08/25 06:07:12;;;;;;;8.68;4.00;;;11.50;99.90;;;13.92;94.23;101375.25;6139293;23;20009;-90
2021/08/25 06:09:38;;;;;;;5.18;3.58;;;11.80;99.90;;;14.31;92.51;101375.38;6164317;23;20017;-88
2021/08/25 06:14:32;;;;;;;8.00;4.03;;;12.30;99.90;;;14.96;88.95;101376.47;6162243;23;20036;-88
2021/08/25 06:16:58;;;;;;;9.27;4.75;;;12.70;99.90;;;15.39;87.49;101359.22;6136255;23;20002;-87
2021/08/25 06:19:28;;;;;;;8.00;4.32;;;13.20;99.90;;;15.78;86.03;101362.78;6136122;23;20009;-90
2021/08/25 06:21:53;;;;;;;9.02;4.60;;;13.50;99.90;;;16.05;82.00;101361.63;6130562;23;20009;-88
2021/08/25 06:24:19;;;;;;;8.23;4.60;;;13.90;99.90;;;16.21;81.92;101359.44;6107571;23;20166;-89
2021/08/25 06:26:45;;;;;;;8.30;4.43;;;14.10;99.90;;;16.45;81.64;101375.13;6108562;23;20016;-89
2021/08/25 06:29:11;;;;;;;10.70;4.70;;;14.30;99.90;;;16.66;80.67;101366.19;6108147;23;20037;-89
2021/08/25 06:31:37;;;;;;;8.70;4.28;;;14.50;99.90;;;16.87;79.68;101363.63;6107864;23;20021;-91
2021/08/25 06:34:03;;;;;;;8.23;4.07;;;14.70;99.90;;;17.08;79.81;101368.75;6109284;23;20020;-89
2021/08/25 06:36:29;;;;;;;7.15;4.30;;;14.90;99.90;;;17.28;79.38;101368.16;6109237;23;20038;-91
2021/08/25 06:38:54;;;;;;;8.18;4.63;;;15.10;99.90;;;17.20;78.02;101357.19;6109546;23;20448;-90
2021/08/25 06:41:20;;;;;;;6.50;3.65;;;15.20;99.90;;;17.28;78.05;101359.69;6108955;23;20064;-90
2021/08/25 06:43:46;;;;;;;9.07;4.18;;;15.20;99.90;;;17.34;76.88;101355.31;6108510;23;20005;-90
2021/08/25 06:46:12;;;;;;;8.93;4.75;;;15.30;99.90;;;17.48;76.90;101360.31;6108650;23;20002;-89
2021/08/25 06:48:38;;;;;;;7.07;4.13;;;15.40;99.90;;;17.68;75.81;101358.94;6110181;23;20036;-90
2021/08/25 06:51:04;;;;;;;7.43;4.07;;;15.70;99.90;;;17.85;75.80;101360.28;6132304;23;20013;-90
2021/08/25 06:53:31;;;;;;;8.98;4.65;;;15.80;99.90;;;18.16;74.45;101356.09;6110166;23;20034;-88
2021/08/25 06:55:57;;;;;;;8.85;4.93;;;16.00;99.90;;;18.33;74.54;101356.19;6109577;23;20017;-89
2021/08/25 06:58:26;;;;;;;8.80;4.30;;;16.20;99.90;;;18.54;73.84;101361.22;6109654;23;20002;-89
2021/08/25 07:01:00;;;;;;;9.73;4.82;;;16.40;99.90;;;18.67;72.87;101356.03;6134206;23;20014;-89
2021/08/25 07:03:26;;;;;;;16.10;4.80;;;16.50;99.90;;;18.86;72.39;101353.72;6112434;23;20187;-89
2021/08/25 07:05:53;;;;;;;9.48;4.47;;;16.70;99.90;;;19.08;71.06;101354.59;6114400;23;20192;-89
2021/08/25 07:08:19;;;;;;;8.95;4.50;;;17.00;99.90;;;19.35;70.99;101355.91;6111863;23;20085;-88
2021/08/25 07:10:46;;;;;;;10.88;4.53;;;17.20;99.90;;;19.55;69.20;101355.56;6112140;23;20052;-93
2021/08/25 07:13:12;;;;;;;8.95;4.57;;;17.40;99.90;;;19.66;68.58;101342.22;6109988;23;20018;-89
2021/08/25 07:15:38;;;;;;;10.73;4.63;;;17.50;99.90;;;19.81;67.70;101341.81;6131015;23;20006;-90
2021/08/25 07:18:04;;;;;;;8.60;4.90;;;17.70;99.90;;;19.86;67.78;101341.41;6106468;23;20010;-87
2021/08/25 07:20:32;;;;;;;8.02;4.50;;;17.70;99.90;;;20.13;67.35;101358.03;6107308;23;20469;-89
2021/08/25 07:22:59;;;;;;;11.80;5.05;;;17.90;99.90;;;20.44;65.38;101354.34;6107705;23;20016;-87
2021/08/25 07:25:25;;;;;;;12.57;5.15;;;18.30;99.90;;;20.68;64.90;101352.69;6106916;23;20006;-90
2021/08/25 07:27:52;;;;;;;9.23;4.55;;;18.40;99.90;;;20.88;63.92;101353.81;6106654;23;20025;-90
2021/08/25 07:30:18;;;;;;;10.95;4.72;;;18.60;99.90;;;21.08;63.17;101354.13;6131440;23;20385;-87
2021/08/25 07:32:44;;;;;;;8.75;4.20;;;18.80;99.90;;;21.40;62.74;101354.81;6107549;23;20060;-88
2021/08/25 07:35:19;;;;;;;10.70;5.18;;;19.10;99.90;;;21.64;61.51;101356.66;6110380;23;20317;-89
2021/08/25 07:37:45;;;;;;;10.73;4.82;;;19.30;99.90;;;21.89;60.69;101350.84;6149840;23;19998;-90
2021/08/25 07:40:11;;;;;;;12.63;4.95;;;19.50;99.90;;;22.03;59.64;101354.34;6116204;23;20056;-89
2021/08/25 07:42:37;;;;;;;11.35;5.43;;;19.70;99.90;;;22.20;58.29;101352.59;6109292;23;20302;-89
2021/08/25 07:45:05;;;;;;;12.30;5.18;;;19.90;99.90;;;22.41;57.74;101355.22;6109419;23;20044;-89
2021/08/25 07:47:31;;;;;;;11.80;5.50;;;20.00;99.90;;;22.53;55.90;101351.03;6108175;23;20505;-90
2021/08/25 07:49:56;;;;;;;13.20;5.72;;;20.20;99.90;;;22.70;55.41;101346.41;6108871;23;20021;-91
2021/08/25 07:52:23;;;;;;;10.88;4.93;;;20.30;99.90;;;22.92;55.24;101353.47;6108543;23;20352;-92
2021/08/25 07:54:49;;;;;;;10.90;5.03;;;20.40;99.90;;;23.00;54.42;101343.56;6133727;23;20017;-88
2021/08/25 07:57:15;;;;;;;13.68;5.13;;;20.60;99.90;;;23.12;53.87;101343.00;6133465;23;20042;-90
2021/08/25 07:59:43;;;;;;;14.20;5.13;;;20.70;99.90;;;23.31;52.51;101339.47;6109517;23;20029;-90
2021/08/25 08:02:09;;;;;;;12.27;5.18;;;20.90;99.90;;;23.59;51.18;101341.97;6109992;23;20006;-92
2021/08/25 08:04:34;;;;;;;20.05;6.25;;;21.10;99.90;;;23.74;49.88;101333.16;6111419;23;20010;-88
2021/08/25 08:07:00;;;;;;;24.40;6.70;;;21.20;99.90;;;23.69;49.28;101331.63;6106731;23;20057;-89
2021/08/25 08:09:26;;;;;;;17.73;6.18;;;21.20;99.90;;;23.84;48.45;101335.03;6107600;23;20436;-89
2021/08/25 08:11:52;;;;;;;16.52;6.10;;;21.40;99.90;;;24.10;48.47;101331.34;6107476;23;20092;-87
2021/08/25 08:14:18;;;;;;;18.00;5.95;;;21.60;99.90;;;24.20;48.44;101335.25;6106887;23;20018;-89
2021/08/25 08:16:50;;;;;;;22.08;6.13;;;21.80;99.90;;;24.33;48.15;101337.06;6106961;23;20065;-89
2021/08/25 08:19:18;;;;;;;23.10;7.22;;;21.90;99.90;;;24.34;47.73;101337.88;6106264;23;20034;-88
2021/08/25 08:21:46;;;;;;;27.05;7.22;;;22.00;99.90;;;24.72;47.14;101339.16;6107480;23;20029;-87
2021/08/25 08:24:12;;;;;;;33.92;8.88;;;22.20;99.10;;;24.89;46.33;101340.06;6131345;23;20016;-87
2021/08/25 08:26:40;;;;;;;24.55;7.55;;;22.40;97.40;;;25.12;45.75;101328.53;6106096;23;20057;-87
2021/08/25 08:29:06;;;;;;;36.05;8.68;;;22.70;95.50;;;25.19;44.12;101334.09;6131590;23;20005;-90
2021/08/25 08:31:33;;;;;;;28.30;7.43;;;22.80;92.60;;;25.55;44.87;101331.28;6107668;23;20037;-89
2021/08/25 08:33:59;;;;;;;25.88;7.63;;;23.00;93.60;;;25.92;44.18;101327.88;6107335;23;20096;-90
2021/08/25 08:36:25;;;;;;;22.35;7.25;;;23.30;92.60;;;25.91;43.65;101334.06;6107801;23;20010;-88
2021/08/25 08:38:53;;;;;;;22.63;6.72;;;23.20;91.00;;;25.61;44.10;101327.44;6109731;23;20508;-90
2021/08/25 08:41:18;;;;;;;16.23;6.65;;;23.00;91.00;;;25.59;44.87;101327.06;6106802;23;20053;-87
2021/08/25 08:43:51;;;;;;;17.52;5.82;;;23.00;91.90;;;25.75;43.11;101331.97;6106908;23;20010;-88
2021/08/25 08:46:21;;;;;;;15.07;6.30;;;23.10;89.80;;;25.72;42.84;101326.38;6107123;23;20010;-89
2021/08/25 08:48:50;;;;;;;16.13;6.03;;;23.20;88.70;;;25.97;42.84;101332.28;6133294;23;20092;-88
2021/08/25 08:51:24;;;;;;;13.98;4.47;;;23.30;87.60;;;26.16;41.84;101323.63;6107711;23;20013;-88
2021/08/25 08:53:52;;;;;;;12.10;4.35;;;23.40;86.30;;;26.13;43.25;101323.66;6107381;23;20013;-88
2021/08/25 08:56:20;;;;;;;12.18;4.97;;;23.50;89.00;;;26.32;43.63;101314.19;6106743;23;20006;-87
2021/08/25 08:58:48;;;;;;;13.48;5.60;;;23.60;89.40;;;26.44;42.56;101313.44;6106796;23;20392;-90
2021/08/25 09:01:14;;;;;;;10.48;4.53;;;23.70;86.70;;;26.36;41.93;101308.38;6107001;23;20006;-88
2021/08/25 09:03:41;;;;;;;11.05;5.00;;;23.60;83.60;;;26.29;41.57;101299.97;6105963;23;20025;-89
2021/08/25 09:06:09;;;;;;;12.98;4.80;;;23.60;82.70;;;26.46;41.61;101296.59;6107507;23;20009;-91
2021/08/25 09:08:39;;;;;;;10.63;4.05;;;23.80;83.20;;;26.16;41.01;101299.91;6105589;23;20017;-88
2021/08/25 09:11:20;;;;;;;10.30;4.03;;;23.60;80.30;;;25.92;41.32;101289.84;6105822;23;20010;-89
2021/08/25 09:13:51;;;;;;;10.55;4.32;;;23.50;80.70;;;26.41;41.57;101285.69;6106461;23;20017;-89
2021/08/25 09:16:34;;;;;;;11.50;4.32;;;23.80;82.00;;;27.03;41.08;101290.03;6106359;23;20069;-89
2021/08/25 09:19:16;;;;;;;7.85;3.80;;;24.20;80.80;;;27.42;39.46;101294.53;6105848;23;20037;-88
2021/08/25 09:21:53;;;;;;;8.20;3.78;;;24.60;78.10;;;27.51;39.42;101300.44;6105292;23;20029;-87
2021/08/25 09:24:40;;;;;;;10.52;4.07;;;24.60;76.90;;;26.85;39.77;101294.69;6107062;23;20006;-89
2021/08/25 09:27:12;;;;;;;7.88;4.28;;;24.20;75.90;;;26.04;42.08;101301.38;6104603;23;20062;-87
2021/08/25 09:29:53;;;;;;;9.68;3.63;;;23.70;79.40;;;25.91;42.89;101288.28;6105113;23;20006;-87
2021/08/25 09:32:25;;;;;;;12.68;4.55;;;23.50;82.00;;;26.49;41.14;101292.03;6105099;23;20073;-87
2021/08/25 09:35:01;;;;;;;13.75;4.43;;;23.70;78.80;;;27.27;40.93;101293.38;6105487;23;20066;-89
2021/08/25 09:37:33;;;;;;;16.92;4.70;;;24.30;80.50;;;27.64;39.62;101283.22;6130156;23;20021;-88
2021/08/25 09:40:13;;;;;;;11.25;4.53;;;24.70;76.70;;;27.91;39.97;101283.50;6105552;23;20112;-91
2021/08/25 09:42:47;;;;;;;10.15;4.18;;;24.90;77.70;;;27.67;40.02;101279.41;6129727;23;20010;-89
2021/08/25 09:45:19;;;;;;;10.32;4.45;;;24.80;77.10;;;27.40;40.26;101279.03;6105701;23;20021;-88
2021/08/25 09:47:55;;;;;;;9.68;3.95;;;24.70;77.10;;;26.88;39.41;101274.50;6130169;23;20006;-88
2021/08/25 09:50:26;;;;;;;7.47;3.40;;;24.50;75.00;;;26.32;39.97;101265.50;6104497;23;20033;-87
2021/08/25 09:52:54;;;;;;;7.28;3.55;;;24.00;74.00;;;26.15;39.66;101270.44;6128744;23;20010;-87
2021/08/25 09:55:35;;;;;;;5.57;3.25;;;23.90;73.60;;;26.62;38.63;101267.88;6111654;23;20033;-88
2021/08/25 09:58:03;;;;;;;5.80;3.60;;;24.00;72.30;;;27.06;37.33;101277.66;6141956;23;20119;-88
2021/08/25 10:00:29;;;;;;;5.47;3.60;;;24.30;69.20;;;27.43;36.59;101264.63;6105642;23;20417;-87
2021/08/25 10:02:55;;;;;;;8.43;3.95;;;24.60;68.80;;;27.69;36.87;101260.47;6105245;23;20053;-86
2021/08/25 10:05:29;;;;;;;8.73;3.83;;;24.80;70.10;;;27.79;34.82;101260.56;6105569;23;20005;-90
2021/08/25 10:08:00;;;;;;;7.53;3.65;;;25.10;64.70;;;28.10;34.54;101265.22;6129406;23;20085;-87
2021/08/25 10:10:27;;;;;;;6.70;3.72;;;25.20;64.60;;;27.91;34.75;101254.78;6129134;23;20010;-89
2021/08/25 10:12:54;;;;;;;9.73;4.53;;;25.30;63.80;;;27.94;34.25;101245.25;6129697;23;20064;-90
2021/08/25 10:15:33;;;;;;;6.18;3.90;;;25.40;62.80;;;28.30;35.43;101249.75;6105627;23;20010;-90
2021/08/25 10:18:19;;;;;;;5.80;3.50;;;25.50;65.50;;;28.47;35.59;101254.03;6129579;23;20009;-89